Fagelgracht — PBST — position and weather

sailwx.info

Track history (hours):
 
Tides and Currents Weather Stations Pressure Air Temp Water Temp Dewpoint Dewpoint Depression Visibility Wind Speed Wind Dir Waves Ship Positions

Fagelgracht

Last reported at 2017-Nov-19 01:31 UTC. Time now 2017-Nov-20 03:58 UTC.
Position N 45°29' W 073°31'.

Length 136 m; draft 8 m.

Type: Ship (hazmat cat A). MMSI: 246591000.

Date/timePositionNaut miles runAvg speedWind from/ knotsBaromVisibWave heightAir tempDewpointWater temp
2017-Nov-19 01:31N 45°29' W 073°31'0 2.6
2017-Nov-19 01:30N 45°29' W 073°31'1 2.6
2017-Nov-19 01:00N 45°28' W 073°30'2 4.4
2017-Nov-19 00:28N 45°26' W 073°30'3 5.5
2017-Nov-19 00:00N 45°24' W 073°33'0 0.9
2017-Nov-18 23:30N 45°24' W 073°34'1 2.9
2017-Nov-18 23:00N 45°24' W 073°36'3 6.4
2017-Nov-18 22:30N 45°25' W 073°41'4 8.3
2017-Nov-18 22:00N 45°24' W 073°46'612.6
2017-Nov-18 21:30N 45°20' W 073°53'2 3.7
2017-Nov-18 21:01N 45°19' W 073°55'1 1.5
2017-Nov-18 20:30N 45°18' W 073°56'0 0.2
2017-Nov-18 20:00N 45°18' W 073°56'0 0.1
2017-Nov-18 19:30N 45°18' W 073°56'1 1.6
2017-Nov-18 19:00N 45°17' W 073°56'4 7.1
2017-Nov-18 18:30N 45°15' W 073°59'4 0.3
2017-Nov-18 01:47N 45°13' W 074°05'2 6.7
2017-Nov-18 01:30N 45°13' W 074°02'3 4.1
2017-Nov-18 00:45N 45°14' W 074°07'311.8
2017-Nov-18 00:30N 45°14' W 074°11'  
Track history (hours):
 
Tides and Currents Weather Stations Pressure Air Temp Water Temp Dewpoint Dewpoint Depression Visibility Wind Speed Wind Dir Waves Ship Positions

Fagelgracht

Last reported at 2017-Nov-19 01:31 UTC. Time now 2017-Nov-20 03:58 UTC.
Position N 45°29' W 073°31'.

Length 136 m; draft 8 m.

Type: Ship (hazmat cat A). MMSI: 246591000.

Date/timePositionNaut miles runAvg speedWind from/ knotsBaromVisibWave heightAir tempDewpointWater temp
2017-Nov-19 01:31N 45°29' W 073°31'0 2.6
2017-Nov-19 01:30N 45°29' W 073°31'1 2.6
2017-Nov-19 01:00N 45°28' W 073°30'2 4.4
2017-Nov-19 00:28N 45°26' W 073°30'3 5.5
2017-Nov-19 00:00N 45°24' W 073°33'0 0.9
2017-Nov-18 23:30N 45°24' W 073°34'1 2.9
2017-Nov-18 23:00N 45°24' W 073°36'3 6.4
2017-Nov-18 22:30N 45°25' W 073°41'4 8.3
2017-Nov-18 22:00N 45°24' W 073°46'612.6
2017-Nov-18 21:30N 45°20' W 073°53'2 3.7
2017-Nov-18 21:01N 45°19' W 073°55'1 1.5
2017-Nov-18 20:30N 45°18' W 073°56'0 0.2
2017-Nov-18 20:00N 45°18' W 073°56'0 0.1
2017-Nov-18 19:30N 45°18' W 073°56'1 1.6
2017-Nov-18 19:00N 45°17' W 073°56'4 7.1
2017-Nov-18 18:30N 45°15' W 073°59'4 0.3
2017-Nov-18 01:47N 45°13' W 074°05'2 6.7
2017-Nov-18 01:30N 45°13' W 074°02'3 4.1
2017-Nov-18 00:45N 45°14' W 074°07'311.8
2017-Nov-18 00:30N 45°14' W 074°11'  

Dump ship's entire track history